Time;durP1;ratioP1;P1;durP2;ratioP2;P2;SDS_P1;SDS_P2;PMS_P1;PMS_P2;Temp;Humidity;BMP_temperature;BMP_pressure;BME280_temperature;BME280_humidity;BME280_pressure;Samples;Min_cycle;Max_cycle;Signal;HPM_P1;HPM_P2
2024/04/04 00:00:01;;;;;;;1.80;1.02;;;;;;;;;;5092312;28;20471;-57
2024/04/04 00:02:27;;;;;;;2.25;1.17;;;;;;;;;;5090413;28;20403;-57
2024/04/04 00:04:59;;;;;;;2.28;1.15;;;;;;;;;;5090862;28;20445;-56
2024/04/04 00:07:25;;;;;;;6.07;1.30;;;;;;;;;;5092350;28;20050;-59
2024/04/04 00:09:52;;;;;;;2.30;1.30;;;;;;;;;;5092482;28;20016;-61
2024/04/04 00:12:19;;;;;;;1.65;1.55;;;;;;;;;;5091326;28;20051;-61
2024/04/04 00:14:45;;;;;;;2.47;1.30;;;;;;;;;;5091387;28;20549;-61
2024/04/04 00:17:11;;;;;;;1.65;1.13;;;;;;;;;;5092144;28;20151;-60
2024/04/04 00:19:37;;;;;;;2.28;1.27;;;;;;;;;;5091385;28;20061;-61
2024/04/04 00:22:03;;;;;;;2.17;1.13;;;;;;;;;;5083083;28;20468;-60
2024/04/04 00:24:29;;;;;;;2.95;1.13;;;;;;;;;;5091829;28;20480;-61
2024/04/04 00:26:55;;;;;;;1.85;1.08;;;;;;;;;;5092067;28;20123;-61
2024/04/04 00:29:21;;;;;;;1.35;0.98;;;;;;;;;;5089450;28;20041;-60
2024/04/04 00:31:47;;;;;;;1.08;0.80;;;;;;;;;;5092317;28;20016;-61
2024/04/04 00:34:13;;;;;;;2.63;1.10;;;;;;;;;;5090167;28;20024;-61
2024/04/04 00:36:39;;;;;;;2.50;1.38;;;;;;;;;;5092149;28;20047;-61
2024/04/04 00:39:05;;;;;;;2.33;1.10;;;;;;;;;;5081832;28;20036;-61
2024/04/04 00:41:31;;;;;;;1.70;1.20;;;;;;;;;;5072427;28;20488;-60
2024/04/04 00:43:57;;;;;;;3.50;1.50;;;;;;;;;;5078493;28;20070;-61
2024/04/04 00:46:24;;;;;;;1.58;1.10;;;;;;;;;;5088069;28;20091;-60
2024/04/04 00:48:50;;;;;;;2.33;1.25;;;;;;;;;;5091965;28;20099;-61
2024/04/04 00:51:16;;;;;;;2.05;1.10;;;;;;;;;;5091349;28;20032;-61
2024/04/04 00:53:43;;;;;;;2.65;1.17;;;;;;;;;;5090555;28;20032;-60
2024/04/04 00:56:09;;;;;;;3.67;1.20;;;;;;;;;;5088890;28;20036;-61
2024/04/04 00:58:36;;;;;;;1.40;0.98;;;;;;;;;;5095002;28;20024;-60
2024/04/04 01:01:02;;;;;;;2.50;1.23;;;;;;;;;;5095602;28;20119;-56
2024/04/04 01:03:28;;;;;;;1.58;1.25;;;;;;;;;;5095735;28;20149;-57
2024/04/04 01:05:54;;;;;;;2.80;1.45;;;;;;;;;;5095961;28;20028;-57
2024/04/04 01:08:21;;;;;;;8.68;1.35;;;;;;;;;;5095263;28;20027;-57
2024/04/04 01:10:47;;;;;;;2.42;1.10;;;;;;;;;;5093697;28;20444;-56
2024/04/04 01:13:14;;;;;;;2.08;1.10;;;;;;;;;;5075324;28;20104;-57
2024/04/04 01:15:40;;;;;;;2.25;1.30;;;;;;;;;;5091110;28;20016;-57
2024/04/04 01:18:06;;;;;;;2.63;1.55;;;;;;;;;;5095620;28;20020;-57
2024/04/04 01:20:32;;;;;;;1.77;1.20;;;;;;;;;;5095888;28;20028;-57
2024/04/04 01:22:58;;;;;;;2.58;1.52;;;;;;;;;;5095267;28;20390;-57
2024/04/04 01:25:24;;;;;;;1.73;1.20;;;;;;;;;;5092113;28;20058;-57
2024/04/04 01:27:50;;;;;;;2.42;1.60;;;;;;;;;;5095577;28;20115;-56
2024/04/04 01:30:17;;;;;;;2.20;1.42;;;;;;;;;;5084212;28;20032;-57
2024/04/04 01:32:43;;;;;;;1.95;1.27;;;;;;;;;;5094965;28;20104;-56
2024/04/04 01:35:09;;;;;;;2.05;1.60;;;;;;;;;;5095666;28;20086;-56
2024/04/04 01:37:35;;;;;;;3.33;1.42;;;;;;;;;;5094247;28;20031;-59
2024/04/04 01:40:04;;;;;;;2.45;1.50;;;;;;;;;;5095499;28;20455;-57
2024/04/04 01:42:29;;;;;;;2.97;1.55;;;;;;;;;;5092145;28;20031;-56
2024/04/04 01:44:55;;;;;;;2.72;1.73;;;;;;;;;;5090197;28;20043;-56
2024/04/04 01:47:21;;;;;;;1.88;1.42;;;;;;;;;;5095183;28;20053;-57
2024/04/04 01:49:47;;;;;;;2.15;1.45;;;;;;;;;;5094282;28;20023;-58
2024/04/04 01:52:13;;;;;;;3.35;1.80;;;;;;;;;;5074355;28;20021;-57
2024/04/04 01:54:39;;;;;;;3.97;1.30;;;;;;;;;;5093488;28;20032;-57
2024/04/04 01:57:05;;;;;;;2.65;1.83;;;;;;;;;;5094063;28;20036;-58
2024/04/04 01:59:31;;;;;;;3.75;2.03;;;;;;;;;;5093109;28;20032;-58
2024/04/04 02:01:57;;;;;;;2.50;1.50;;;;;;;;;;5089684;28;20411;-57
2024/04/04 02:04:23;;;;;;;3.67;1.48;;;;;;;;;;5090469;28;20378;-57
2024/04/04 02:06:49;;;;;;;5.57;1.55;;;;;;;;;;5093153;28;20071;-58
2024/04/04 02:09:15;;;;;;;7.75;2.10;;;;;;;;;;5094676;28;20089;-59
2024/04/04 02:11:41;;;;;;;3.17;2.28;;;;;;;;;;5093542;28;20556;-59
2024/04/04 02:14:10;;;;;;;2.42;1.85;;;;;;;;;;5087102;28;20028;-60
2024/04/04 02:16:39;;;;;;;2.50;1.63;;;;;;;;;;5093862;28;20084;-59
2024/04/04 02:19:05;;;;;;;3.15;1.83;;;;;;;;;;5093195;28;20399;-60
2024/04/04 02:21:32;;;;;;;6.18;2.47;;;;;;;;;;5094311;28;20031;-60
2024/04/04 02:23:58;;;;;;;2.55;2.05;;;;;;;;;;5084803;28;20093;-59
2024/04/04 02:26:24;;;;;;;2.70;2.00;;;;;;;;;;5093486;28;20050;-59
2024/04/04 02:28:50;;;;;;;4.40;2.40;;;;;;;;;;5088942;28;20024;-60
2024/04/04 02:31:17;;;;;;;4.20;2.10;;;;;;;;;;5078915;28;20052;-60
2024/04/04 02:33:43;;;;;;;3.35;2.15;;;;;;;;;;5093984;28;20062;-60
2024/04/04 02:36:09;;;;;;;2.72;2.17;;;;;;;;;;5085918;28;20028;-59
2024/04/04 02:38:35;;;;;;;4.53;2.67;;;;;;;;;;5093791;28;20020;-59
2024/04/04 02:41:04;;;;;;;3.53;2.35;;;;;;;;;;5086047;28;20058;-59
2024/04/04 02:43:31;;;;;;;3.70;2.47;;;;;;;;;;5091033;28;20036;-59
2024/04/04 02:46:05;;;;;;;2.97;2.22;;;;;;;;;;5091780;28;20387;-59
2024/04/04 02:48:31;;;;;;;5.05;2.53;;;;;;;;;;5093694;28;20606;-59
2024/04/04 02:50:57;;;;;;;5.15;2.92;;;;;;;;;;5088472;28;20066;-60
2024/04/04 02:53:23;;;;;;;4.68;2.47;;;;;;;;;;5093616;28;20108;-60
2024/04/04 02:55:54;;;;;;;3.60;2.25;;;;;;;;;;5094009;28;20032;-59
2024/04/04 02:58:20;;;;;;;6.75;2.40;;;;;;;;;;5092332;28;20545;-59
2024/04/04 03:00:46;;;;;;;3.15;2.33;;;;;;;;;;5093180;28;20032;-59
2024/04/04 03:03:13;;;;;;;3.42;2.40;;;;;;;;;;5083468;28;20119;-60
2024/04/04 03:05:39;;;;;;;4.90;3.15;;;;;;;;;;5093639;28;20024;-59
2024/04/04 03:08:07;;;;;;;3.33;2.50;;;;;;;;;;5086606;28;20028;-60
2024/04/04 03:10:33;;;;;;;4.35;2.15;;;;;;;;;;5092011;28;20039;-59
2024/04/04 03:12:59;;;;;;;9.20;2.63;;;;;;;;;;5093162;28;20061;-59
2024/04/04 03:15:25;;;;;;;2.53;1.90;;;;;;;;;;5081168;28;20024;-59
2024/04/04 03:17:51;;;;;;;5.03;2.63;;;;;;;;;;5089788;28;20115;-56
2024/04/04 03:20:17;;;;;;;4.47;2.05;;;;;;;;;;5089075;28;20396;-56
2024/04/04 03:22:43;;;;;;;4.90;2.40;;;;;;;;;;5086248;28;20029;-57
2024/04/04 03:25:09;;;;;;;3.03;2.40;;;;;;;;;;5092959;28;20040;-56
2024/04/04 03:27:35;;;;;;;2.85;2.00;;;;;;;;;;5092828;28;20036;-57
2024/04/04 03:30:00;;;;;;;4.10;2.30;;;;;;;;;;5090344;28;20046;-57
2024/04/04 03:32:26;;;;;;;2.70;2.45;;;;;;;;;;5083938;28;20039;-56
2024/04/04 03:34:52;;;;;;;4.90;2.72;;;;;;;;;;5091281;28;20024;-57
2024/04/04 03:37:18;;;;;;;3.30;2.45;;;;;;;;;;5079398;28;20041;-58
2024/04/04 03:39:46;;;;;;;4.00;2.50;;;;;;;;;;5088320;28;20122;-57
2024/04/04 03:42:12;;;;;;;5.18;2.70;;;;;;;;;;5092885;28;20103;-57
2024/04/04 03:44:38;;;;;;;7.47;2.28;;;;;;;;;;5092808;28;20116;-57
2024/04/04 03:47:04;;;;;;;4.05;2.83;;;;;;;;;;5087494;28;20032;-57
2024/04/04 03:49:30;;;;;;;3.92;2.50;;;;;;;;;;5092924;28;20499;-57
2024/04/04 03:51:56;;;;;;;5.90;2.65;;;;;;;;;;5077426;28;20028;-57
2024/04/04 03:54:22;;;;;;;3.13;2.10;;;;;;;;;;5087151;28;20024;-56
2024/04/04 03:56:48;;;;;;;3.40;2.28;;;;;;;;;;5088111;28;20487;-57
2024/04/04 03:59:14;;;;;;;4.22;2.75;;;;;;;;;;5091471;28;20047;-58
2024/04/04 04:01:40;;;;;;;3.58;2.60;;;;;;;;;;5091084;28;20116;-57
2024/04/04 04:04:06;;;;;;;3.70;2.70;;;;;;;;;;5081297;28;20035;-56
2024/04/04 04:06:32;;;;;;;4.20;2.63;;;;;;;;;;5092090;28;20027;-57
2024/04/04 04:08:57;;;;;;;3.80;2.80;;;;;;;;;;5092553;28;20028;-56
2024/04/04 04:11:23;;;;;;;4.25;2.58;;;;;;;;;;5089681;28;20475;-56
2024/04/04 04:13:49;;;;;;;4.90;3.10;;;;;;;;;;5091476;28;20492;-57
2024/04/04 04:16:16;;;;;;;5.18;2.78;;;;;;;;;;5090267;28;20763;-59
2024/04/04 04:18:42;;;;;;;3.75;2.50;;;;;;;;;;5082387;28;20047;-57
2024/04/04 04:21:20;;;;;;;6.22;2.55;;;;;;;;;;5091557;28;20028;-57
2024/04/04 04:23:50;;;;;;;3.97;2.30;;;;;;;;;;5091403;28;20442;-57
2024/04/04 04:26:16;;;;;;;5.18;2.17;;;;;;;;;;5092129;28;20526;-57
2024/04/04 04:28:42;;;;;;;4.70;2.33;;;;;;;;;;5090940;28;20028;-61
2024/04/04 04:31:24;;;;;;;2.97;2.67;;;;;;;;;;5085788;28;20031;-61
2024/04/04 04:33:50;;;;;;;4.03;2.45;;;;;;;;;;5084528;28;20055;-61
2024/04/04 04:36:16;;;;;;;2.88;2.03;;;;;;;;;;5088549;28;20024;-60
2024/04/04 04:38:42;;;;;;;3.63;2.00;;;;;;;;;;5090710;28;20027;-60
2024/04/04 04:41:09;;;;;;;4.47;2.38;;;;;;;;;;5084471;28;20065;-60
2024/04/04 04:43:34;;;;;;;4.20;2.10;;;;;;;;;;5090957;28;20028;-60
2024/04/04 04:46:00;;;;;;;4.55;2.22;;;;;;;;;;5090601;28;20028;-60
2024/04/04 04:48:26;;;;;;;4.60;2.10;;;;;;;;;;5082908;28;20433;-60
2024/04/04 04:50:52;;;;;;;3.25;1.65;;;;;;;;;;5089190;28;20024;-60
2024/04/04 04:53:18;;;;;;;3.00;1.98;;;;;;;;;;5083866;28;20021;-60
2024/04/04 04:55:47;;;;;;;2.88;1.63;;;;;;;;;;5090323;28;20043;-58
2024/04/04 04:58:13;;;;;;;3.70;1.70;;;;;;;;;;5088214;28;20028;-60
2024/04/04 05:00:39;;;;;;;3.47;2.00;;;;;;;;;;5090210;28;20058;-60
2024/04/04 05:03:05;;;;;;;2.53;1.85;;;;;;;;;;5089984;28;20058;-60
2024/04/04 05:05:31;;;;;;;4.20;1.90;;;;;;;;;;5090901;28;20024;-62
2024/04/04 05:07:57;;;;;;;5.00;1.85;;;;;;;;;;5090600;28;20071;-60
2024/04/04 05:10:23;;;;;;;2.90;1.45;;;;;;;;;;5084184;28;20032;-60
2024/04/04 05:12:49;;;;;;;2.17;1.50;;;;;;;;;;5090244;28;20024;-60
2024/04/04 05:15:15;;;;;;;3.45;1.50;;;;;;;;;;5090804;28;20090;-60
2024/04/04 05:17:41;;;;;;;2.63;1.60;;;;;;;;;;5085803;28;20107;-60
2024/04/04 05:20:08;;;;;;;3.47;1.50;;;;;;;;;;5086500;28;20074;-60
2024/04/04 05:22:34;;;;;;;1.80;1.38;;;;;;;;;;5086890;28;20040;-60
2024/04/04 05:25:00;;;;;;;2.55;1.40;;;;;;;;;;5081015;28;20092;-60
2024/04/04 05:27:26;;;;;;;3.17;1.35;;;;;;;;;;5088360;28;20047;-60
2024/04/04 05:29:53;;;;;;;4.95;1.75;;;;;;;;;;5083803;28;20047;-60
2024/04/04 05:32:19;;;;;;;4.00;1.42;;;;;;;;;;5090604;28;20034;-60
2024/04/04 05:34:47;;;;;;;2.85;1.45;;;;;;;;;;5090249;28;20093;-60
2024/04/04 05:37:13;;;;;;;4.30;1.60;;;;;;;;;;5090382;28;20082;-60
2024/04/04 05:39:39;;;;;;;5.82;1.50;;;;;;;;;;5088817;28;20074;-58
2024/04/04 05:42:05;;;;;;;1.90;1.30;;;;;;;;;;5093808;28;20097;-59
2024/04/04 05:44:31;;;;;;;2.90;1.55;;;;;;;;;;5087564;28;20032;-59
2024/04/04 05:46:57;;;;;;;2.97;1.55;;;;;;;;;;5079128;28;20370;-58
2024/04/04 05:49:23;;;;;;;2.85;1.40;;;;;;;;;;5094111;28;20105;-59
2024/04/04 05:51:49;;;;;;;2.17;1.25;;;;;;;;;;5093682;28;20030;-58
2024/04/04 05:54:16;;;;;;;2.78;1.50;;;;;;;;;;5090457;28;20055;-58
2024/04/04 05:56:42;;;;;;;5.60;1.77;;;;;;;;;;5094306;28;20028;-60
2024/04/04 05:59:08;;;;;;;2.58;1.30;;;;;;;;;;5093499;28;20027;-59
2024/04/04 06:01:34;;;;;;;1.63;1.27;;;;;;;;;;5094223;28;20063;-59
2024/04/04 06:04:00;;;;;;;3.85;1.40;;;;;;;;;;5092739;28;20169;-59
2024/04/04 06:06:26;;;;;;;2.00;1.15;;;;;;;;;;5093080;28;20408;-59
2024/04/04 06:08:52;;;;;;;2.80;1.25;;;;;;;;;;5084915;28;20122;-59
2024/04/04 06:11:18;;;;;;;2.35;1.20;;;;;;;;;;5089133;28;20036;-59
2024/04/04 06:13:44;;;;;;;3.08;1.30;;;;;;;;;;5093322;28;20163;-59
2024/04/04 06:16:10;;;;;;;3.60;1.00;;;;;;;;;;5093461;28;20047;-59
2024/04/04 06:18:36;;;;;;;4.07;1.40;;;;;;;;;;5086315;28;20036;-62
2024/04/04 06:21:02;;;;;;;3.80;1.25;;;;;;;;;;5088363;28;20028;-59
2024/04/04 06:23:29;;;;;;;4.32;1.17;;;;;;;;;;5092401;28;20130;-59
2024/04/04 06:25:55;;;;;;;3.22;1.30;;;;;;;;;;5092811;28;20040;-59
2024/04/04 06:28:21;;;;;;;2.67;1.23;;;;;;;;;;5087417;28;20028;-59
2024/04/04 06:30:47;;;;;;;2.10;1.10;;;;;;;;;;5093173;28;20024;-59
2024/04/04 06:33:13;;;;;;;1.30;1.10;;;;;;;;;;5087814;28;20095;-59
2024/04/04 06:35:38;;;;;;;7.47;2.05;;;;;;;;;;5087525;28;20101;-59
2024/04/04 06:38:04;;;;;;;4.70;1.33;;;;;;;;;;5088651;28;20028;-59
2024/04/04 06:40:32;;;;;;;5.35;1.58;;;;;;;;;;5090435;28;20028;-59
2024/04/04 06:42:58;;;;;;;2.50;1.23;;;;;;;;;;5089001;28;20084;-59
2024/04/04 06:45:24;;;;;;;3.13;1.10;;;;;;;;;;5091423;28;20115;-59
2024/04/04 06:47:57;;;;;;;2.85;1.02;;;;;;;;;;5089682;28;20471;-57
2024/04/04 06:50:23;;;;;;;2.85;1.50;;;;;;;;;;5089913;28;20342;-59
2024/04/04 06:52:49;;;;;;;5.60;1.38;;;;;;;;;;5088396;28;20491;-60
2024/04/04 06:55:15;;;;;;;5.15;1.13;;;;;;;;;;5090910;28;20061;-60
2024/04/04 06:57:41;;;;;;;2.35;1.20;;;;;;;;;;5091041;28;20024;-59
2024/04/04 07:00:09;;;;;;;2.72;0.98;;;;;;;;;;5086124;28;20047;-60
2024/04/04 07:02:35;;;;;;;2.03;0.95;;;;;;;;;;5090689;28;20036;-60
2024/04/04 07:05:01;;;;;;;3.55;1.15;;;;;;;;;;5079477;28;20063;-59
2024/04/04 07:07:27;;;;;;;4.82;0.95;;;;;;;;;;5099072;28;20032;-60
2024/04/04 07:09:53;;;;;;;3.95;1.30;;;;;;;;;;5091295;28;20028;-61
2024/04/04 07:12:19;;;;;;;3.55;0.95;;;;;;;;;;5079646;28;20052;-60
2024/04/04 07:14:45;;;;;;;2.30;0.80;;;;;;;;;;5091714;28;20032;-60
2024/04/04 07:17:12;;;;;;;4.20;1.33;;;;;;;;;;5086563;28;20028;-59
2024/04/04 07:19:38;;;;;;;2.55;1.00;;;;;;;;;;5087417;28;20036;-59
2024/04/04 07:22:04;;;;;;;2.20;1.00;;;;;;;;;;5089964;28;20031;-60
2024/04/04 07:24:30;;;;;;;4.43;1.35;;;;;;;;;;5089709;28;20067;-61
2024/04/04 07:26:56;;;;;;;1.20;1.10;;;;;;;;;;5091921;28;20050;-60
2024/04/04 07:29:22;;;;;;;4.82;0.95;;;;;;;;;;5090564;28;20039;-59
2024/04/04 07:31:49;;;;;;;4.32;1.45;;;;;;;;;;5088274;28;20032;-57
2024/04/04 07:34:15;;;;;;;3.08;1.00;;;;;;;;;;5087655;28;20035;-59
2024/04/04 07:36:41;;;;;;;3.58;0.73;;;;;;;;;;5086370;28;20036;-60
2024/04/04 07:39:09;;;;;;;2.45;0.93;;;;;;;;;;5086029;28;20036;-59
2024/04/04 07:41:35;;;;;;;4.60;0.80;;;;;;;;;;5084980;28;20113;-59
2024/04/04 07:44:01;;;;;;;1.80;0.80;;;;;;;;;;5088689;28;20032;-60
2024/04/04 07:46:27;;;;;;;4.70;0.93;;;;;;;;;;5089737;28;20032;-59
2024/04/04 07:48:53;;;;;;;3.55;0.68;;;;;;;;;;5090287;28;20420;-61
2024/04/04 07:51:19;;;;;;;3.35;0.65;;;;;;;;;;5090516;28;20031;-58
2024/04/04 07:53:45;;;;;;;1.15;0.57;;;;;;;;;;5085642;28;20403;-59
2024/04/04 07:56:12;;;;;;;3.17;0.77;;;;;;;;;;5084777;28;20083;-60
2024/04/04 07:58:43;;;;;;;2.55;0.60;;;;;;;;;;5084497;28;20095;-59
2024/04/04 08:01:11;;;;;;;2.92;0.70;;;;;;;;;;5091246;28;20032;-61
2024/04/04 08:03:37;;;;;;;2.75;1.02;;;;;;;;;;5085372;28;20107;-61
2024/04/04 08:06:04;;;;;;;1.83;0.45;;;;;;;;;;5086689;28;20047;-61
2024/04/04 08:08:30;;;;;;;1.73;0.80;;;;;;;;;;5087078;28;20457;-61
2024/04/04 08:10:56;;;;;;;2.90;0.60;;;;;;;;;;5088108;28;20040;-61
2024/04/04 08:13:22;;;;;;;3.60;0.82;;;;;;;;;;5088945;28;20407;-61
2024/04/04 08:15:51;;;;;;;1.20;0.40;;;;;;;;;;5085478;28;20111;-61
2024/04/04 08:18:21;;;;;;;3.58;0.52;;;;;;;;;;5085829;28;20039;-61
2024/04/04 08:20:47;;;;;;;1.98;0.70;;;;;;;;;;5087917;28;20024;-61
2024/04/04 08:23:16;;;;;;;2.97;0.70;;;;;;;;;;5089483;28;20031;-61
2024/04/04 08:25:52;;;;;;;3.35;0.70;;;;;;;;;;5084660;28;20031;-61
2024/04/04 08:28:19;;;;;;;0.75;0.40;;;;;;;;;;5084551;28;20127;-62
2024/04/04 08:30:45;;;;;;;0.90;0.52;;;;;;;;;;5083112;28;20024;-61
2024/04/04 08:33:11;;;;;;;2.58;0.52;;;;;;;;;;5089383;28;20123;-60
2024/04/04 08:35:38;;;;;;;1.98;0.80;;;;;;;;;;5086098;28;20024;-62
2024/04/04 08:38:04;;;;;;;2.13;0.50;;;;;;;;;;5086801;28;20070;-62
2024/04/04 08:40:31;;;;;;;2.05;0.50;;;;;;;;;;5082485;28;20036;-61
2024/04/04 08:42:57;;;;;;;1.80;0.57;;;;;;;;;;5087854;28;20470;-61
2024/04/04 08:45:23;;;;;;;4.53;0.60;;;;;;;;;;5084039;28;20035;-61
2024/04/04 08:47:49;;;;;;;2.65;0.70;;;;;;;;;;5087632;28;20500;-61
2024/04/04 08:50:15;;;;;;;4.55;0.65;;;;;;;;;;5086797;28;20064;-62
2024/04/04 08:52:41;;;;;;;1.77;0.60;;;;;;;;;;5089416;28;20020;-61
2024/04/04 08:55:08;;;;;;;4.05;0.65;;;;;;;;;;5083923;28;20437;-61
2024/04/04 08:57:34;;;;;;;2.50;0.60;;;;;;;;;;5084649;28;20020;-62
2024/04/04 09:00:05;;;;;;;2.22;0.40;;;;;;;;;;5088962;28;20032;-62
2024/04/04 09:02:31;;;;;;;0.70;0.30;;;;;;;;;;5083009;28;20123;-60
2024/04/04 09:05:07;;;;;;;2.08;0.60;;;;;;;;;;5081149;28;20032;-61
2024/04/04 09:07:36;;;;;;;2.63;0.30;;;;;;;;;;5086506;28;20055;-62
2024/04/04 09:10:06;;;;;;;3.50;0.75;;;;;;;;;;5090235;28;20051;-61
2024/04/04 09:12:32;;;;;;;3.10;0.50;;;;;;;;;;5079040;28;20431;-61
2024/04/04 09:14:59;;;;;;;1.75;0.40;;;;;;;;;;5088357;28;20107;-62
2024/04/04 09:17:26;;;;;;;4.07;0.50;;;;;;;;;;5089146;28;20128;-62
2024/04/04 09:19:55;;;;;;;3.55;0.55;;;;;;;;;;5092289;28;20068;-62
2024/04/04 09:22:22;;;;;;;1.40;0.47;;;;;;;;;;5092187;28;20024;-62
2024/04/04 09:24:48;;;;;;;6.47;0.80;;;;;;;;;;5094041;28;20056;-62
2024/04/04 09:27:18;;;;;;;2.92;0.63;;;;;;;;;;5087219;28;20040;-62
2024/04/04 09:29:44;;;;;;;1.88;0.40;;;;;;;;;;5085524;28;20024;-61
2024/04/04 09:32:12;;;;;;;3.70;0.50;;;;;;;;;;5086869;28;20506;-61
2024/04/04 09:34:39;;;;;;;2.38;0.60;;;;;;;;;;5084224;28;20465;-59
2024/04/04 09:37:05;;;;;;;2.00;0.52;;;;;;;;;;5090759;28;20058;-62
2024/04/04 09:39:31;;;;;;;1.45;0.40;;;;;;;;;;5088619;28;20035;-62
2024/04/04 09:41:57;;;;;;;1.63;0.30;;;;;;;;;;5093636;28;20511;-61
2024/04/04 09:44:24;;;;;;;1.58;0.55;;;;;;;;;;5089158;28;20036;-62
2024/04/04 09:46:50;;;;;;;5.72;0.60;;;;;;;;;;5085765;28;20024;-61
2024/04/04 09:49:17;;;;;;;3.13;0.43;;;;;;;;;;5091606;28;20483;-61
2024/04/04 09:51:44;;;;;;;1.10;0.40;;;;;;;;;;5085550;28;20111;-61
2024/04/04 09:54:10;;;;;;;1.75;0.40;;;;;;;;;;5080350;28;20033;-61
2024/04/04 09:56:36;;;;;;;2.42;0.60;;;;;;;;;;5087291;28;20456;-61
2024/04/04 09:59:02;;;;;;;2.40;0.47;;;;;;;;;;5086205;28;20028;-61
2024/04/04 10:01:29;;;;;;;2.67;0.50;;;;;;;;;;5090541;28;20487;-61
2024/04/04 10:03:55;;;;;;;3.30;0.60;;;;;;;;;;5089280;28;20031;-61
2024/04/04 10:06:35;;;;;;;1.33;0.65;;;;;;;;;;5082567;28;20037;-61
2024/04/04 10:09:01;;;;;;;1.75;0.30;;;;;;;;;;5085922;28;20082;-60
2024/04/04 10:11:30;;;;;;;1.85;0.60;;;;;;;;;;5090303;28;20031;-61
2024/04/04 10:14:00;;;;;;;3.30;0.50;;;;;;;;;;5091171;28;20069;-60
2024/04/04 10:16:33;;;;;;;3.65;0.60;;;;;;;;;;5089766;28;20039;-61
2024/04/04 10:19:08;;;;;;;5.93;0.47;;;;;;;;;;5088689;28;20121;-61
2024/04/04 10:21:34;;;;;;;2.55;0.50;;;;;;;;;;5087094;28;20028;-61
2024/04/04 10:24:02;;;;;;;2.38;0.50;;;;;;;;;;5089011;28;20384;-61
2024/04/04 10:26:28;;;;;;;2.92;0.70;;;;;;;;;;5080849;28;20035;-61
2024/04/04 10:28:55;;;;;;;6.43;0.60;;;;;;;;;;5091463;28;20475;-62
2024/04/04 10:31:21;;;;;;;3.47;0.70;;;;;;;;;;5093963;28;20031;-61
2024/04/04 10:33:47;;;;;;;2.75;0.73;;;;;;;;;;5086066;28;20380;-61
2024/04/04 10:36:13;;;;;;;3.33;0.57;;;;;;;;;;5089273;28;20029;-60
2024/04/04 10:38:39;;;;;;;1.92;0.60;;;;;;;;;;5087129;28;20035;-62
2024/04/04 10:41:05;;;;;;;4.55;0.70;;;;;;;;;;5092579;28;20024;-62
2024/04/04 10:43:39;;;;;;;4.18;0.73;;;;;;;;;;5090078;28;20063;-61
2024/04/04 10:46:05;;;;;;;3.40;1.00;;;;;;;;;;5091939;28;20066;-61
2024/04/04 10:48:31;;;;;;;6.40;1.00;;;;;;;;;;5096437;28;20074;-61
2024/04/04 10:50:57;;;;;;;1.70;0.73;;;;;;;;;;5089995;28;20028;-61
2024/04/04 10:53:23;;;;;;;1.88;0.75;;;;;;;;;;5087242;27;20050;-61
2024/04/04 10:55:49;;;;;;;1.98;0.60;;;;;;;;;;5092949;28;20416;-62
2024/04/04 10:58:15;;;;;;;4.38;1.13;;;;;;;;;;5092232;28;20066;-61
2024/04/04 11:00:41;;;;;;;4.50;1.30;;;;;;;;;;5079907;28;20048;-61
2024/04/04 11:03:09;;;;;;;6.40;1.10;;;;;;;;;;5079076;28;20043;-61
2024/04/04 11:05:35;;;;;;;3.03;0.88;;;;;;;;;;5088404;28;20123;-61
2024/04/04 11:08:05;;;;;;;4.55;0.93;;;;;;;;;;5094554;28;20547;-61
2024/04/04 11:10:32;;;;;;;4.95;1.08;;;;;;;;;;5087041;28;20032;-62
2024/04/04 11:12:58;;;;;;;3.53;1.38;;;;;;;;;;5089847;28;20032;-61
2024/04/04 11:15:23;;;;;;;2.50;0.90;;;;;;;;;;5092031;28;20365;-61
2024/04/04 11:17:51;;;;;;;2.95;0.80;;;;;;;;;;5084898;28;20043;-62
2024/04/04 11:20:19;;;;;;;3.15;0.85;;;;;;;;;;5088210;28;20036;-62
2024/04/04 11:22:45;;;;;;;4.05;0.82;;;;;;;;;;5091844;28;20544;-61
2024/04/04 11:25:11;;;;;;;2.78;1.00;;;;;;;;;;5092136;28;20044;-62
2024/04/04 11:27:38;;;;;;;4.38;1.00;;;;;;;;;;5103851;27;20539;-60
2024/04/04 11:30:04;;;;;;;3.83;1.00;;;;;;;;;;5092046;28;20242;-60
2024/04/04 11:32:31;;;;;;;5.85;1.42;;;;;;;;;;5088553;28;20455;-59
2024/04/04 11:34:57;;;;;;;2.58;1.20;;;;;;;;;;5086933;28;20032;-59
2024/04/04 11:37:26;;;;;;;2.45;0.95;;;;;;;;;;5085910;28;20033;-60
2024/04/04 11:39:52;;;;;;;7.30;0.80;;;;;;;;;;5086493;28;20618;-60
2024/04/04 11:42:18;;;;;;;1.27;0.75;;;;;;;;;;5085331;28;20035;-60
2024/04/04 11:44:44;;;;;;;3.60;0.88;;;;;;;;;;5092187;28;20529;-60
2024/04/04 11:47:11;;;;;;;4.68;1.15;;;;;;;;;;5087701;28;20482;-60
2024/04/04 11:49:37;;;;;;;2.08;0.90;;;;;;;;;;5077819;28;20541;-60
2024/04/04 11:52:03;;;;;;;2.65;1.05;;;;;;;;;;5078636;28;20028;-60
2024/04/04 11:54:30;;;;;;;4.50;1.55;;;;;;;;;;5090109;28;20032;-60
2024/04/04 11:56:55;;;;;;;3.78;1.23;;;;;;;;;;5091718;28;20028;-60
2024/04/04 11:59:22;;;;;;;2.60;1.20;;;;;;;;;;5084737;28;20117;-60
2024/04/04 12:01:48;;;;;;;5.20;1.50;;;;;;;;;;5091507;28;20074;-60
2024/04/04 12:04:14;;;;;;;0.90;0.80;;;;;;;;;;5099865;28;20066;-59
2024/04/04 12:06:40;;;;;;;4.47;1.25;;;;;;;;;;5080310;28;20039;-60
2024/04/04 12:09:09;;;;;;;3.17;1.10;;;;;;;;;;5095023;28;20109;-60
2024/04/04 12:11:35;;;;;;;3.85;1.33;;;;;;;;;;5077735;28;20013;-60
2024/04/04 12:14:01;;;;;;;3.95;1.00;;;;;;;;;;5099466;28;20035;-60
2024/04/04 12:16:31;;;;;;;3.25;1.25;;;;;;;;;;5090053;28;20467;-59
2024/04/04 12:21:42;;;;;;;3.78;1.30;;;;;;;;;;5085003;28;20078;-60
2024/04/04 12:24:09;;;;;;;3.25;1.20;;;;;;;;;;5081630;28;20067;-60
2024/04/04 12:26:35;;;;;;;6.20;1.50;;;;;;;;;;5087367;28;20043;-61
2024/04/04 12:29:01;;;;;;;2.35;1.08;;;;;;;;;;5086686;28;20032;-60
2024/04/04 12:31:28;;;;;;;2.78;1.42;;;;;;;;;;5074639;28;20427;-61
2024/04/04 12:33:54;;;;;;;2.28;1.67;;;;;;;;;;5088967;28;20043;-60
2024/04/04 12:36:20;;;;;;;8.68;2.33;;;;;;;;;;5085013;28;20028;-61
2024/04/04 12:38:46;;;;;;;5.43;1.60;;;;;;;;;;5089479;28;20433;-58
2024/04/04 12:41:11;;;;;;;4.75;1.67;;;;;;;;;;5083629;28;20032;-58
2024/04/04 12:43:37;;;;;;;3.83;1.95;;;;;;;;;;5087588;28;20098;-59
2024/04/04 12:46:04;;;;;;;4.53;1.90;;;;;;;;;;5084270;28;20036;-59
2024/04/04 12:48:34;;;;;;;2.95;1.98;;;;;;;;;;5087042;28;20036;-59
2024/04/04 12:51:00;;;;;;;5.53;2.28;;;;;;;;;;5093765;28;20024;-59
2024/04/04 12:53:26;;;;;;;5.60;2.45;;;;;;;;;;5093552;28;20106;-58
2024/04/04 12:55:53;;;;;;;5.22;1.80;;;;;;;;;;5086115;28;20046;-60
2024/04/04 12:58:19;;;;;;;4.35;2.22;;;;;;;;;;5090427;28;20056;-58
2024/04/04 13:00:45;;;;;;;4.65;2.53;;;;;;;;;;5091342;28;20059;-58
2024/04/04 13:03:11;;;;;;;4.13;2.33;;;;;;;;;;5091267;28;20032;-58
2024/04/04 13:05:38;;;;;;;5.32;2.08;;;;;;;;;;5097037;28;20035;-58
2024/04/04 13:08:04;;;;;;;3.53;2.35;;;;;;;;;;5096712;28;20032;-58
2024/04/04 13:10:30;;;;;;;10.55;2.85;;;;;;;;;;5087571;28;20505;-58
2024/04/04 13:12:56;;;;;;;7.07;3.05;;;;;;;;;;5096363;28;20120;-58
2024/04/04 13:15:22;;;;;;;5.80;2.72;;;;;;;;;;5094733;28;20036;-57
2024/04/04 13:17:48;;;;;;;9.48;2.83;;;;;;;;;;5087236;28;20107;-57
2024/04/04 13:20:17;;;;;;;6.22;2.35;;;;;;;;;;5097912;28;20032;-58
2024/04/04 13:22:43;;;;;;;4.50;2.20;;;;;;;;;;5096024;28;20019;-57
2024/04/04 13:25:10;;;;;;;3.97;2.28;;;;;;;;;;5096148;28;20054;-57
2024/04/04 13:27:41;;;;;;;6.82;2.45;;;;;;;;;;5096343;28;20130;-58
2024/04/04 13:30:09;;;;;;;8.48;3.22;;;;;;;;;;5096764;28;20421;-57
2024/04/04 13:32:35;;;;;;;6.20;2.72;;;;;;;;;;5095356;28;20024;-58
2024/04/04 13:35:01;;;;;;;8.70;2.97;;;;;;;;;;5096826;28;20035;-58
2024/04/04 13:37:28;;;;;;;5.70;2.58;;;;;;;;;;5088579;28;20480;-58
2024/04/04 13:39:54;;;;;;;3.58;2.50;;;;;;;;;;5083855;28;20032;-58
2024/04/04 13:42:21;;;;;;;9.05;3.00;;;;;;;;;;5096594;28;20024;-57
2024/04/04 13:44:49;;;;;;;5.75;2.75;;;;;;;;;;5097194;28;20397;-57
2024/04/04 13:47:15;;;;;;;6.60;2.75;;;;;;;;;;5095581;28;20046;-58
2024/04/04 13:49:41;;;;;;;6.13;2.38;;;;;;;;;;5093920;28;20388;-58
2024/04/04 13:52:08;;;;;;;4.50;2.65;;;;;;;;;;5084421;28;20459;-59
2024/04/04 13:54:33;;;;;;;4.80;2.38;;;;;;;;;;5090817;28;20028;-57
2024/04/04 13:57:00;;;;;;;7.70;2.50;;;;;;;;;;5086807;28;20039;-58
2024/04/04 13:59:26;;;;;;;3.85;2.22;;;;;;;;;;5094160;28;20028;-59
2024/04/04 14:01:52;;;;;;;4.28;2.35;;;;;;;;;;5094883;28;20100;-58
2024/04/04 14:04:18;;;;;;;5.93;2.30;;;;;;;;;;5091661;28;20063;-58
2024/04/04 14:06:44;;;;;;;7.38;1.92;;;;;;;;;;5082848;28;20527;-58
2024/04/04 14:09:10;;;;;;;2.92;1.83;;;;;;;;;;5095267;28;20157;-57
2024/04/04 14:11:36;;;;;;;5.07;2.20;;;;;;;;;;5086155;28;20119;-59
2024/04/04 14:14:07;;;;;;;6.40;2.33;;;;;;;;;;5091497;28;20027;-58
2024/04/04 14:16:37;;;;;;;4.88;2.38;;;;;;;;;;5086782;28;20477;-58
2024/04/04 14:19:04;;;;;;;3.33;1.77;;;;;;;;;;5090903;28;20035;-60
2024/04/04 14:21:32;;;;;;;6.10;1.83;;;;;;;;;;5090639;28;20052;-58
2024/04/04 14:23:58;;;;;;;4.28;1.48;;;;;;;;;;5092989;28;20036;-58
2024/04/04 14:26:25;;;;;;;4.90;1.55;;;;;;;;;;5093183;28;20073;-58
2024/04/04 14:28:50;;;;;;;8.20;2.47;;;;;;;;;;5086073;28;20400;-58
2024/04/04 14:31:16;;;;;;;4.30;2.00;;;;;;;;;;5089203;28;20032;-58
2024/04/04 14:33:42;;;;;;;5.85;2.00;;;;;;;;;;5086349;28;20096;-59
2024/04/04 14:36:09;;;;;;;2.95;1.80;;;;;;;;;;5084802;28;20039;-58
2024/04/04 14:38:36;;;;;;;6.57;1.90;;;;;;;;;;5090224;28;20024;-58
2024/04/04 14:41:03;;;;;;;4.15;1.92;;;;;;;;;;5092906;28;20111;-57